Time;durP1;ratioP1;P1;durP2;ratioP2;P2;SDS_P1;SDS_P2;PMS_P1;PMS_P2;Temp;Humidity;BMP_temperature;BMP_pressure;BME280_temperature;BME280_humidity;BME280_pressure;Samples;Min_cycle;Max_cycle;Signal;HPM_P1;HPM_P2
2021/12/18 00:05:18;;;;;;;4.65;1.52;;;8.40;99.90;;;;;;20726966;28;20057;-44
2021/12/18 00:15:24;;;;;;;5.47;1.52;;;8.40;99.90;;;;;;20736424;28;20041;-44
2021/12/18 00:25:25;;;;;;;3.85;1.20;;;8.40;99.90;;;;;;20737511;28;20149;-44
2021/12/18 00:35:26;;;;;;;3.72;1.00;;;8.30;99.90;;;;;;20736134;28;20049;-44
2021/12/18 00:45:35;;;;;;;4.63;0.80;;;8.30;99.90;;;;;;20741503;28;20628;-45
2021/12/18 00:55:37;;;;;;;3.28;1.23;;;8.30;99.90;;;;;;20728156;28;20528;-45
2021/12/18 01:05:38;;;;;;;2.17;1.23;;;8.30;99.90;;;;;;20716143;28;20038;-45
2021/12/18 01:15:50;;;;;;;2.70;0.93;;;8.30;99.90;;;;;;20646851;28;20034;-45
2021/12/18 01:25:53;;;;;;;4.13;0.88;;;8.30;99.90;;;;;;20643936;28;20335;-45
2021/12/18 01:35:59;;;;;;;3.83;0.68;;;8.30;99.90;;;;;;20644237;28;20046;-45
2021/12/18 01:46:31;;;;;;;6.87;1.97;;;8.30;99.90;;;;;;20637862;28;20691;-45
2021/12/18 01:56:32;;;;;;;2.67;1.20;;;8.30;99.90;;;;;;20587138;28;20039;-45
2021/12/18 02:06:33;;;;;;;3.55;0.93;;;8.30;99.90;;;;;;20585699;28;20498;-45
2021/12/18 02:26:55;;;;;;;3.85;1.08;;;8.30;99.90;;;;;;20567453;28;20045;-45
2021/12/18 02:37:03;;;;;;;4.13;1.30;;;8.30;99.90;;;;;;20566697;28;20039;-45
2021/12/18 02:47:04;;;;;;;4.13;1.20;;;8.20;99.90;;;;;;20569569;28;20042;-45
2021/12/18 02:57:05;;;;;;;3.63;1.80;;;8.20;99.90;;;;;;20572557;28;20046;-45
2021/12/18 03:07:09;;;;;;;4.68;1.25;;;8.20;99.90;;;;;;20569139;28;20042;-45
2021/12/18 03:27:32;;;;;;;2.08;0.75;;;8.00;99.90;;;;;;20571122;28;20053;-45
2021/12/18 03:37:34;;;;;;;2.60;0.93;;;8.00;99.90;;;;;;20570576;28;20047;-45
2021/12/18 03:47:36;;;;;;;4.28;1.42;;;7.90;99.90;;;;;;20574908;28;20034;-45
2021/12/18 03:57:38;;;;;;;3.10;0.85;;;7.90;99.90;;;;;;20574424;28;20046;-45
2021/12/18 04:07:41;;;;;;;2.25;0.38;;;7.80;99.90;;;;;;20573167;28;20035;-45
2021/12/18 04:17:42;;;;;;;2.03;0.43;;;7.70;99.90;;;;;;20570580;28;20053;-45
2021/12/18 04:27:44;;;;;;;1.45;0.43;;;7.60;99.90;;;;;;20574262;28;20101;-45
2021/12/18 04:37:45;;;;;;;1.02;0.22;;;7.50;99.90;;;;;;20576327;28;20616;-45
2021/12/18 04:47:46;;;;;;;0.45;0.40;;;7.40;99.90;;;;;;20577352;28;20045;-45
2021/12/18 04:57:48;;;;;;;0.20;0.10;;;7.30;99.90;;;;;;20575753;28;20035;-45
2021/12/18 05:07:49;;;;;;;1.55;0.20;;;7.20;99.90;;;;;;20577686;28;20057;-45
2021/12/18 05:17:50;;;;;;;0.50;0.20;;;7.20;99.90;;;;;;20574068;28;20050;-45
2021/12/18 05:27:52;;;;;;;1.27;0.20;;;7.10;99.90;;;;;;20582595;28;20143;-45
2021/12/18 05:38:04;;;;;;;1.92;0.20;;;7.00;99.90;;;;;;20589446;28;20050;-45
2021/12/18 05:48:05;;;;;;;0.40;0.05;;;6.90;99.90;;;;;;20591962;28;20042;-45
2021/12/18 05:58:06;;;;;;;1.30;0.32;;;6.80;99.90;;;;;;20585013;28;20042;-45
2021/12/18 06:08:12;;;;;;;0.77;0.17;;;6.70;99.90;;;;;;20588512;28;20042;-45
2021/12/18 06:18:13;;;;;;;0.60;0.10;;;6.60;99.90;;;;;;20600623;28;20396;-45
2021/12/18 06:28:15;;;;;;;1.55;0.90;;;6.60;99.90;;;;;;20578947;28;20049;-45
2021/12/18 06:38:16;;;;;;;0.00;0.00;;;6.50;99.90;;;;;;20579741;28;20050;-45
2021/12/18 06:48:17;;;;;;;0.35;0.00;;;6.40;99.90;;;;;;20575565;28;20498;-45
2021/12/18 06:58:18;;;;;;;0.30;0.10;;;6.40;99.90;;;;;;20578434;28;20035;-45
2021/12/18 07:08:19;;;;;;;0.55;0.10;;;6.20;99.90;;;;;;20578332;28;20050;-45
2021/12/18 07:18:20;;;;;;;1.85;0.20;;;6.10;99.90;;;;;;20578671;28;20046;-45
2021/12/18 07:28:22;;;;;;;1.10;0.25;;;6.00;99.90;;;;;;20595332;28;20042;-45
2021/12/18 07:38:24;;;;;;;0.40;0.30;;;6.00;99.90;;;;;;20587094;28;20585;-44
2021/12/18 07:48:25;;;;;;;2.17;0.20;;;6.00;99.90;;;;;;20577656;28;20046;-45
2021/12/18 07:58:27;;;;;;;0.63;0.00;;;5.90;99.90;;;;;;20579918;28;20039;-45
2021/12/18 08:08:28;;;;;;;0.90;0.30;;;5.90;99.90;;;;;;20567854;28;20046;-45
2021/12/18 08:18:29;;;;;;;0.80;0.17;;;6.00;99.90;;;;;;20561881;28;20042;-45
2021/12/18 08:28:30;;;;;;;0.30;0.10;;;6.00;99.90;;;;;;20559656;28;20049;-45
2021/12/18 08:38:31;;;;;;;1.35;0.13;;;6.00;99.90;;;;;;20561489;28;20533;-44
2021/12/18 08:48:33;;;;;;;0.88;0.28;;;6.00;99.90;;;;;;20562956;28;20050;-44
2021/12/18 08:58:34;;;;;;;1.05;0.30;;;5.90;99.90;;;;;;20560829;28;20038;-45
2021/12/18 09:08:35;;;;;;;0.22;0.00;;;6.00;99.90;;;;;;20584977;28;20054;-45
2021/12/18 09:18:37;;;;;;;1.10;0.20;;;6.00;99.90;;;;;;20580599;28;20034;-44
2021/12/18 09:28:38;;;;;;;0.05;0.00;;;6.00;99.90;;;;;;20596484;28;20045;-45
2021/12/18 09:38:39;;;;;;;0.57;0.13;;;6.00;99.90;;;;;;20583808;28;20057;-44
2021/12/18 09:48:43;;;;;;;0.00;0.00;;;5.90;99.90;;;;;;20580163;28;20035;-45
2021/12/18 09:58:44;;;;;;;1.08;0.20;;;6.00;99.90;;;;;;20583021;28;20074;-44
2021/12/18 10:08:45;;;;;;;1.75;0.55;;;5.90;99.90;;;;;;20581839;28;20039;-45
2021/12/18 10:18:47;;;;;;;0.77;0.40;;;5.90;99.90;;;;;;20578476;28;20043;-44
2021/12/18 10:28:48;;;;;;;0.77;0.20;;;6.00;99.90;;;;;;20592406;28;20039;-45
2021/12/18 10:38:52;;;;;;;0.88;0.40;;;6.10;99.90;;;;;;20579333;28;20972;-45
2021/12/18 10:49:06;;;;;;;2.30;0.60;;;6.10;99.90;;;;;;20583817;28;20043;-45
2021/12/18 10:59:31;;;;;;;4.28;0.75;;;6.10;99.90;;;;;;20579271;28;20045;-45
2021/12/18 11:09:35;;;;;;;0.95;0.20;;;6.20;99.90;;;;;;20583413;28;20046;-45
2021/12/18 11:19:36;;;;;;;2.20;0.75;;;6.20;99.90;;;;;;20588793;28;20514;-45
2021/12/18 11:29:44;;;;;;;1.45;0.38;;;6.20;99.90;;;;;;20584929;28;20313;-45
2021/12/18 11:39:48;;;;;;;3.08;0.63;;;6.40;99.90;;;;;;20590219;28;20038;-45
2021/12/18 11:49:49;;;;;;;0.50;0.20;;;6.50;99.90;;;;;;20589916;28;20116;-45
2021/12/18 11:59:50;;;;;;;3.35;0.43;;;6.60;99.90;;;;;;20588766;28;20046;-45
2021/12/18 12:20:51;;;;;;;1.35;0.47;;;6.60;99.90;;;;;;20587791;28;20049;-45
2021/12/18 12:31:05;;;;;;;3.35;0.70;;;6.60;99.90;;;;;;20594591;28;20429;-45
2021/12/18 12:41:27;;;;;;;1.42;0.57;;;6.50;99.90;;;;;;20586382;28;20042;-45
2021/12/18 12:51:56;;;;;;;2.42;1.55;;;6.50;99.90;;;;;;20581271;28;20045;-45
2021/12/18 13:01:58;;;;;;;1.38;0.88;;;6.60;99.90;;;;;;20563388;28;20465;-45
2021/12/18 13:12:05;;;;;;;2.28;0.65;;;6.60;99.90;;;;;;20562655;28;20653;-45
2021/12/18 13:22:12;;;;;;;3.00;0.80;;;6.60;99.90;;;;;;20565034;28;20046;-45
2021/12/18 13:32:14;;;;;;;1.35;0.35;;;6.70;99.90;;;;;;20569473;28;20513;-45
2021/12/18 13:42:23;;;;;;;2.13;0.90;;;6.70;99.90;;;;;;20554371;28;20047;-45
2021/12/18 13:52:51;;;;;;;1.33;0.50;;;6.80;99.90;;;;;;20577245;28;20398;-45
2021/12/18 14:02:52;;;;;;;;;;;6.80;99.90;;;;;;20558039;28;21412;-45
2021/12/18 14:12:57;;;;;;;1.38;0.30;;;6.80;99.90;;;;;;20567804;28;19924;-45
2021/12/18 14:23:10;;;;;;;1.38;0.10;;;6.80;99.90;;;;;;20566336;28;20522;-45
2021/12/18 14:33:17;;;;;;;2.72;0.63;;;6.90;99.90;;;;;;20574840;28;20058;-45
2021/12/18 14:43:23;;;;;;;1.37;0.40;;;6.90;99.90;;;;;;20562932;28;20062;-45
2021/12/18 14:53:24;;;;;;;1.23;0.28;;;6.80;99.90;;;;;;20572045;28;20042;-45
2021/12/18 15:03:33;;;;;;;1.15;0.15;;;6.80;99.90;;;;;;20567910;28;20070;-45
2021/12/18 15:13:36;;;;;;;2.80;0.55;;;6.80;99.90;;;;;;20550187;28;20045;-45
2021/12/18 15:23:37;;;;;;;2.85;0.77;;;6.80;99.90;;;;;;20564152;28;20640;-45
2021/12/18 15:33:38;;;;;;;1.55;0.70;;;6.80;99.90;;;;;;20576682;28;20986;-45
2021/12/18 15:43:41;;;;;;;2.15;0.70;;;6.80;99.90;;;;;;20564390;28;20047;-45
2021/12/18 15:53:43;;;;;;;1.27;0.50;;;6.80;99.90;;;;;;20577814;28;20034;-45
2021/12/18 16:03:45;;;;;;;2.22;1.15;;;6.90;99.90;;;;;;20573816;28;20538;-45
2021/12/18 16:13:46;;;;;;;4.40;1.55;;;6.90;99.90;;;;;;20567115;28;20039;-45
2021/12/18 16:23:48;;;;;;;3.88;1.40;;;6.90;99.90;;;;;;20597207;28;20034;-45
2021/12/18 16:33:49;;;;;;;6.47;2.63;;;6.90;99.90;;;;;;20581995;28;20046;-45
2021/12/18 16:43:50;;;;;;;6.95;2.33;;;7.00;99.90;;;;;;20577543;28;20817;-45
2021/12/18 16:53:51;;;;;;;3.78;1.27;;;7.00;99.90;;;;;;20549345;28;20121;-45
2021/12/18 17:03:55;;;;;;;6.13;2.38;;;7.10;99.90;;;;;;20576687;28;20574;-44
2021/12/18 17:13:57;;;;;;;4.40;1.55;;;7.10;99.90;;;;;;20571531;28;20433;-45
2021/12/18 17:23:58;;;;;;;6.90;2.75;;;7.10;99.90;;;;;;20627631;28;20383;-45
2021/12/18 17:34:03;;;;;;;5.55;1.30;;;7.10;99.90;;;;;;20631191;28;20038;-48
2021/12/18 17:44:05;;;;;;;4.78;2.05;;;7.10;99.90;;;;;;20636569;28;20070;-45
2021/12/18 17:54:06;;;;;;;3.85;1.45;;;7.20;99.90;;;;;;20640604;28;20069;-45
2021/12/18 18:04:07;;;;;;;7.80;2.83;;;7.20;99.90;;;;;;20631614;28;20082;-45
2021/12/18 18:14:09;;;;;;;7.47;2.90;;;7.30;99.90;;;;;;20636377;28;20042;-45
2021/12/18 18:24:10;;;;;;;7.22;3.05;;;7.30;99.90;;;;;;20634415;28;20130;-45
2021/12/18 18:34:12;;;;;;;7.90;2.60;;;7.30;99.90;;;;;;20638087;28;20057;-45
2021/12/18 18:44:16;;;;;;;9.05;2.97;;;7.30;99.90;;;;;;20628447;28;20102;-45
2021/12/18 18:54:17;;;;;;;9.02;3.35;;;7.40;99.90;;;;;;20623678;28;20038;-44
2021/12/18 19:04:19;;;;;;;10.88;3.50;;;7.40;99.90;;;;;;20614642;28;20042;-45
2021/12/18 19:14:20;;;;;;;9.30;4.00;;;7.40;99.90;;;;;;20634669;28;20122;-45
2021/12/18 19:24:21;;;;;;;16.02;4.88;;;7.40;99.90;;;;;;20618897;28;20038;-45
2021/12/18 19:34:22;;;;;;;16.27;4.13;;;7.30;99.90;;;;;;20618695;28;20049;-45
2021/12/18 19:44:23;;;;;;;18.60;7.97;;;7.30;99.90;;;;;;20618289;28;20072;-45
2021/12/18 19:54:25;;;;;;;19.73;5.80;;;7.30;99.90;;;;;;20612114;28;20061;-46
2021/12/18 20:04:33;;;;;;;17.58;7.18;;;7.20;99.90;;;;;;20618162;28;20107;-45
2021/12/18 20:14:36;;;;;;;32.17;8.63;;;7.30;99.90;;;;;;20621943;28;20061;-45
2021/12/18 20:24:37;;;;;;;30.58;8.50;;;7.20;99.90;;;;;;20619799;28;20570;-50
2021/12/18 20:34:38;;;;;;;15.60;4.32;;;7.20;99.90;;;;;;20613688;28;20048;-45
2021/12/18 20:44:40;;;;;;;8.13;3.65;;;7.20;99.90;;;;;;20615404;28;20043;-45
2021/12/18 20:54:42;;;;;;;12.98;3.53;;;7.20;99.90;;;;;;20621938;28;20030;-44
2021/12/18 21:04:43;;;;;;;15.07;3.92;;;7.10;99.90;;;;;;20632315;28;20070;-48
2021/12/18 21:14:44;;;;;;;11.70;3.70;;;7.10;99.90;;;;;;20628109;28;20030;-45
2021/12/18 21:24:45;;;;;;;15.20;4.60;;;7.10;99.90;;;;;;20626127;28;20034;-44
2021/12/18 21:44:48;;;;;;;15.18;3.60;;;6.90;99.90;;;;;;20593395;28;20426;-45
2021/12/18 21:54:49;;;;;;;13.02;4.22;;;6.90;99.90;;;;;;20603314;28;20064;-44
2021/12/18 22:04:50;;;;;;;10.80;3.60;;;6.80;99.90;;;;;;20582808;28;20042;-44
2021/12/18 22:14:53;;;;;;;10.70;3.30;;;6.80;99.90;;;;;;20570708;28;20491;-44
2021/12/18 22:24:54;;;;;;;14.35;3.95;;;6.80;99.90;;;;;;20560339;28;20050;-45
2021/12/18 22:34:55;;;;;;;13.05;3.65;;;6.80;99.90;;;;;;20565500;28;20045;-44
2021/12/18 22:44:56;;;;;;;15.25;4.88;;;6.80;99.90;;;;;;20566178;28;20051;-44
2021/12/18 22:55:01;;;;;;;10.68;4.43;;;6.70;99.90;;;;;;20566818;28;20046;-45
2021/12/18 23:05:03;;;;;;;10.93;2.35;;;6.70;99.90;;;;;;20573076;28;20045;-44
2021/12/18 23:15:20;;;;;;;15.90;5.15;;;6.70;99.90;;;;;;20578139;28;20032;-44
2021/12/18 23:25:22;;;;;;;5.38;2.60;;;6.60;99.90;;;;;;20584714;28;20046;-44
2021/12/18 23:35:23;;;;;;;3.97;1.00;;;6.60;99.90;;;;;;20575286;28;20038;-44
2021/12/18 23:55:44;;;;;;;11.65;2.55;;;6.60;99.90;;;;;;20576921;28;20053;-44
